createdAt,value
2018-04-15T00:00:08.172Z,100424.34
2018-04-15T00:01:13.948Z,100418.31
2018-04-15T00:02:19.728Z,100420.69
2018-04-15T00:03:25.319Z,100417.91
2018-04-15T00:04:31.859Z,100419.41
2018-04-15T00:05:38.415Z,100422.76
2018-04-15T00:06:44.195Z,100420.38
2018-04-15T00:07:49.975Z,100420.72
2018-04-15T00:08:55.771Z,100421.58
2018-04-15T00:10:01.567Z,100420.72
2018-04-15T00:11:07.547Z,100417.28
2018-04-15T00:12:14.079Z,100421.70
2018-04-15T00:13:19.842Z,100428.88
2018-04-15T00:14:26.420Z,100423.02
2018-04-15T00:15:32.207Z,100421.62
2018-04-15T00:16:37.977Z,100425.95
2018-04-15T00:17:44.516Z,100426.84
2018-04-15T00:18:50.286Z,100424.21
2018-04-15T00:19:56.851Z,100423.36
2018-04-15T00:21:03.392Z,100418.90
2018-04-15T00:22:09.163Z,100415.30
2018-04-15T00:23:14.936Z,100419.92
2018-04-15T00:24:20.767Z,100415.80
2018-04-15T00:25:26.560Z,100416.14
2018-04-15T00:26:32.331Z,100416.05
2018-04-15T00:27:38.192Z,100414.58
2018-04-15T00:28:43.994Z,100408.41
2018-04-15T00:29:49.982Z,100404.84
2018-04-15T00:30:56.524Z,100403.47
2018-04-15T00:32:03.062Z,100408.75
2018-04-15T00:33:08.856Z,100402.63
2018-04-15T00:34:14.635Z,100405.34
2018-04-15T00:35:20.428Z,100407.65
2018-04-15T00:36:26.216Z,100403.81
2018-04-15T00:37:32.008Z,100405.69
2018-04-15T00:38:37.997Z,100410.58
2018-04-15T00:39:43.758Z,100403.64
2018-04-15T00:40:49.529Z,100399.90
2018-04-15T00:41:56.086Z,100401.85
2018-04-15T00:43:02.607Z,100401.98
2018-04-15T00:44:08.385Z,100400.02
2018-04-15T00:45:14.936Z,100398.86
2018-04-15T00:46:21.475Z,100397.76
2018-04-15T00:47:27.281Z,100394.48
2018-04-15T00:48:33.050Z,100389.84
2018-04-15T00:49:38.866Z,100389.92
2018-04-15T00:50:44.623Z,100383.89
2018-04-15T00:51:50.387Z,100381.68
2018-04-15T00:52:56.942Z,100388.27
2018-04-15T00:54:17.707Z,100387.16
2018-04-15T00:55:23.487Z,100388.64
2018-04-15T00:56:29.261Z,100383.80
2018-04-15T00:57:35.040Z,100386.59
2018-04-15T00:58:40.841Z,100383.02
2018-04-15T00:59:47.388Z,100380.39
2018-04-15T01:00:53.927Z,100382.72
2018-04-15T01:01:59.722Z,100376.34
2018-04-15T01:03:05.156Z,100384.75
2018-04-15T01:04:10.959Z,100388.79
2018-04-15T01:05:16.758Z,100391.00
2018-04-15T01:06:22.513Z,100394.09
2018-04-15T01:07:28.417Z,100393.80
2018-04-15T01:08:34.954Z,100387.76
2018-04-15T01:09:40.751Z,100387.80
2018-04-15T01:10:46.519Z,100392.13
2018-04-15T01:11:52.310Z,100386.91
2018-04-15T01:12:58.070Z,100383.80
2018-04-15T01:14:04.072Z,100386.40
2018-04-15T01:15:11.931Z,100378.66
2018-04-15T01:16:17.483Z,100378.78
2018-04-15T01:17:23.254Z,100375.81
2018-04-15T01:18:29.924Z,100375.81
2018-04-15T01:19:35.352Z,100368.02
2018-04-15T01:20:41.163Z,100367.22
2018-04-15T01:21:46.929Z,100359.40
2018-04-15T01:22:53.495Z,100358.16
2018-04-15T01:24:00.046Z,100359.56
2018-04-15T01:25:06.594Z,100358.33
2018-04-15T01:26:13.173Z,100353.95
2018-04-15T01:27:19.699Z,100362.78
2018-04-15T01:28:26.294Z,100355.35
2018-04-15T01:29:32.827Z,100352.37
2018-04-15T01:30:38.611Z,100352.76
2018-04-15T01:31:44.407Z,100350.28
2018-04-15T01:32:50.170Z,100347.78
2018-04-15T01:33:56.719Z,100349.98
2018-04-15T01:35:02.489Z,100350.37
2018-04-15T01:36:09.017Z,100345.95
2018-04-15T01:37:14.795Z,100338.82
2018-04-15T01:38:20.591Z,100333.44
2018-04-15T01:39:26.359Z,100336.50
2018-04-15T01:40:32.899Z,100337.39
2018-04-15T01:41:38.666Z,100326.50
2018-04-15T01:42:45.218Z,100328.37
2018-04-15T01:43:51.744Z,100321.87
2018-04-15T01:44:57.528Z,100320.20
2018-04-15T01:46:03.827Z,100316.39
2018-04-15T01:47:09.605Z,100317.02
2018-04-15T01:48:16.916Z,100321.98
2018-04-15T01:49:22.694Z,100315.48
2018-04-15T01:50:28.455Z,100317.84
2018-04-15T01:51:34.249Z,100318.73
2018-04-15T01:52:40.018Z,100323.16
2018-04-15T01:53:45.807Z,100321.38
2018-04-15T01:54:52.343Z,100323.16
2018-04-15T01:55:58.128Z,100321.87
2018-04-15T01:57:03.931Z,100323.20
2018-04-15T01:58:09.702Z,100320.61
2018-04-15T01:59:16.248Z,100324.94
2018-04-15T02:00:22.779Z,100325.41
2018-04-15T02:01:28.586Z,100322.34
2018-04-15T02:02:34.428Z,100327.19
2018-04-15T02:03:40.220Z,100328.97
2018-04-15T02:04:46.011Z,100324.13
2018-04-15T02:05:51.774Z,100322.93
2018-04-15T02:06:57.587Z,100319.41
2018-04-15T02:08:03.559Z,100316.34
2018-04-15T02:09:09.349Z,100311.51
2018-04-15T02:10:15.147Z,100311.51
2018-04-15T02:11:20.941Z,100317.23
2018-04-15T02:12:27.511Z,100317.20
2018-04-15T02:13:33.831Z,100317.63
2018-04-15T02:14:39.611Z,100316.34
2018-04-15T02:15:45.403Z,100320.34
2018-04-15T02:16:51.176Z,100308.49
2018-04-15T02:17:56.992Z,100318.13
2018-04-15T02:19:02.283Z,100317.75
2018-04-15T02:20:08.051Z,100312.06
2018-04-15T02:21:13.845Z,100319.45
2018-04-15T02:22:20.426Z,100323.44
2018-04-15T02:23:26.411Z,100325.64
2018-04-15T02:24:32.198Z,100323.25
2018-04-15T02:25:38.740Z,100327.20
2018-04-15T02:26:44.536Z,100322.83
2018-04-15T02:27:50.308Z,100328.14
2018-04-15T02:28:56.360Z,100326.02
2018-04-15T02:30:02.153Z,100326.14
2018-04-15T02:31:07.929Z,100322.35
2018-04-15T02:32:13.718Z,100325.45
2018-04-15T02:33:19.496Z,100320.73
2018-04-15T02:34:25.283Z,100315.16
2018-04-15T02:35:31.059Z,100319.62
2018-04-15T02:36:36.495Z,100313.03
2018-04-15T02:37:42.294Z,100311.84
2018-04-15T02:38:47.602Z,100311.11
2018-04-15T02:39:53.376Z,100316.91
2018-04-15T02:40:59.155Z,100310.88
2018-04-15T02:42:04.742Z,100314.87
2018-04-15T02:43:10.530Z,100313.28
2018-04-15T02:44:16.304Z,100308.11
2018-04-15T02:45:22.089Z,100305.59
2018-04-15T02:46:28.653Z,100297.82
2018-04-15T02:47:35.192Z,100300.49
2018-04-15T02:48:41.031Z,100293.11
2018-04-15T02:49:46.805Z,100290.09
2018-04-15T02:50:53.343Z,100295.47
2018-04-15T02:51:59.131Z,100285.92
2018-04-15T02:53:04.897Z,100293.04
2018-04-15T02:54:10.694Z,100294.52
2018-04-15T02:55:17.215Z,100288.52
2018-04-15T02:56:22.975Z,100294.67
2018-04-15T02:57:29.544Z,100297.77
2018-04-15T02:58:35.304Z,100296.10
2018-04-15T02:59:41.096Z,100293.59
2018-04-15T03:00:46.866Z,100292.01
2018-04-15T03:01:53.443Z,100287.21
2018-04-15T03:02:59.211Z,100287.25
2018-04-15T03:04:04.759Z,100285.09
2018-04-15T03:05:10.601Z,100282.54
2018-04-15T03:06:16.368Z,100285.21
2018-04-15T03:07:22.138Z,100281.77
2018-04-15T03:08:28.683Z,100285.75
2018-04-15T03:09:35.212Z,100281.03
2018-04-15T03:10:40.781Z,100288.11
2018-04-15T03:11:46.556Z,100283.52
2018-04-15T03:12:52.340Z,100283.67
2018-04-15T03:13:58.313Z,100288.00
2018-04-15T03:15:03.838Z,100284.98
2018-04-15T03:16:09.635Z,100284.55
2018-04-15T03:17:15.419Z,100281.03
2018-04-15T03:18:20.882Z,100282.35
2018-04-15T03:19:27.482Z,100278.41
2018-04-15T03:20:33.455Z,100282.39
2018-04-15T03:21:39.354Z,100286.41
2018-04-15T03:22:45.132Z,100281.58
2018-04-15T03:23:50.901Z,100280.30
2018-04-15T03:24:57.449Z,100277.25
2018-04-15T03:26:03.215Z,100273.39
2018-04-15T03:27:09.765Z,100270.87
2018-04-15T03:28:15.599Z,100269.17
2018-04-15T03:29:21.363Z,100264.84
2018-04-15T03:30:27.952Z,100268.87
2018-04-15T03:31:33.707Z,100269.41
2018-04-15T03:32:39.535Z,100272.19
2018-04-15T03:33:45.307Z,100267.52
2018-04-15T03:34:51.099Z,100271.07
2018-04-15T03:35:57.634Z,100271.58
2018-04-15T03:37:04.170Z,100279.97
2018-04-15T03:38:09.967Z,100276.64
2018-04-15T03:39:15.822Z,100276.21
2018-04-15T03:40:21.602Z,100272.27
2018-04-15T03:41:27.367Z,100263.49
2018-04-15T03:42:33.145Z,100261.67
2018-04-15T03:43:38.930Z,100263.38
2018-04-15T03:44:44.698Z,100260.75
2018-04-15T03:45:51.250Z,100258.55
2018-04-15T03:46:57.019Z,100259.86
2018-04-15T03:48:03.287Z,100264.20
2018-04-15T03:49:09.079Z,100261.56
2018-04-15T03:50:14.853Z,100261.56
2018-04-15T03:51:21.377Z,100263.80
2018-04-15T03:52:27.142Z,100253.37
2018-04-15T03:53:33.680Z,100262.56
2018-04-15T03:54:39.471Z,100258.66
2018-04-15T03:55:45.247Z,100258.20
2018-04-15T03:56:51.007Z,100261.72
2018-04-15T03:57:56.776Z,100259.55
2018-04-15T03:59:03.420Z,100256.16
2018-04-15T04:00:09.307Z,100258.47
2018-04-15T04:01:15.076Z,100262.95
2018-04-15T04:02:20.842Z,100264.27
2018-04-15T04:03:26.610Z,100270.45
2018-04-15T04:04:33.156Z,100270.03
2018-04-15T04:05:38.952Z,100261.68
2018-04-15T04:06:44.732Z,100263.88
2018-04-15T04:07:50.503Z,100262.95
2018-04-15T04:08:57.053Z,100265.55
2018-04-15T04:10:03.591Z,100257.23
2018-04-15T04:11:09.383Z,100263.34
2018-04-15T04:12:15.169Z,100261.14
2018-04-15T04:13:20.766Z,100259.36
2018-04-15T04:14:26.700Z,100254.95
2018-04-15T04:15:32.239Z,100256.34
2018-04-15T04:16:38.020Z,100252.05
2018-04-15T04:18:00.324Z,100249.39
2018-04-15T04:19:22.891Z,100252.59
2018-04-15T04:20:45.516Z,100252.25
2018-04-15T04:22:08.255Z,100251.05
2018-04-15T04:23:30.928Z,100251.28
2018-04-15T04:24:54.352Z,100257.04
2018-04-15T04:26:07.252Z,100261.13
2018-04-15T04:27:13.279Z,100260.78
2018-04-15T04:28:19.083Z,100264.30
2018-04-15T04:29:24.855Z,100261.67
2018-04-15T04:30:30.625Z,100259.62
2018-04-15T04:31:36.074Z,100259.27
2018-04-15T04:32:41.872Z,100259.73
2018-04-15T04:33:47.644Z,100261.52
2018-04-15T04:34:53.411Z,100260.59
2018-04-15T04:35:59.171Z,100257.57
2018-04-15T04:37:05.717Z,100259.31
2018-04-15T04:38:11.508Z,100257.92
2018-04-15T04:39:17.284Z,100258.69
2018-04-15T04:40:23.063Z,100260.78
2018-04-15T04:41:29.278Z,100261.67
2018-04-15T04:42:35.050Z,100256.38
2018-04-15T04:43:40.835Z,100254.52
2018-04-15T04:44:46.317Z,100258.42
2018-04-15T04:45:52.083Z,100254.91
2018-04-15T04:46:58.621Z,100253.91
2018-04-15T04:48:05.202Z,100255.61
2018-04-15T04:49:11.748Z,100250.73
2018-04-15T04:50:17.532Z,100249.31
2018-04-15T04:51:23.305Z,100240.42
2018-04-15T04:52:29.118Z,100238.14
2018-04-15T04:53:34.878Z,100240.23
2018-04-15T04:54:40.675Z,100238.84
2018-04-15T04:55:47.219Z,100234.39
2018-04-15T04:56:52.996Z,100236.55
2018-04-15T04:57:58.757Z,100241.27
2018-04-15T04:59:04.557Z,100234.63
2018-04-15T05:00:11.119Z,100234.08
2018-04-15T05:01:17.659Z,100228.70
2018-04-15T05:02:24.202Z,100236.47
2018-04-15T05:03:29.767Z,100225.84
2018-04-15T05:04:35.535Z,100224.80
2018-04-15T05:05:41.356Z,100225.10
2018-04-15T05:06:47.968Z,100222.36
2018-04-15T05:07:53.727Z,100220.58
2018-04-15T05:08:59.570Z,100225.33
2018-04-15T05:10:05.342Z,100222.20
2018-04-15T05:11:11.936Z,100225.05
2018-04-15T05:12:17.699Z,100221.88
2018-04-15T05:13:23.512Z,100219.98
2018-04-15T05:14:29.273Z,100219.82
2018-04-15T05:15:35.034Z,100223.10
2018-04-15T05:16:40.834Z,100221.55
2018-04-15T05:17:46.595Z,100221.00
2018-04-15T05:18:52.370Z,100215.12
2018-04-15T05:19:58.155Z,100205.83
2018-04-15T05:21:04.009Z,100198.75
2018-04-15T05:22:09.803Z,100203.85
2018-04-15T05:23:15.568Z,100199.48
2018-04-15T05:24:22.119Z,100203.38
2018-04-15T05:25:27.886Z,100190.66
2018-04-15T05:26:33.685Z,100193.24
2018-04-15T05:27:39.475Z,100198.00
2018-04-15T05:28:45.259Z,100193.13
2018-04-15T05:29:51.072Z,100187.83
2018-04-15T05:30:56.863Z,100192.16
2018-04-15T05:32:02.636Z,100198.64
2018-04-15T05:33:08.437Z,100191.95
2018-04-15T05:34:14.228Z,100191.73
2018-04-15T05:35:19.990Z,100193.70
2018-04-15T05:36:25.527Z,100194.81
2018-04-15T05:37:31.360Z,100194.64
2018-04-15T05:38:37.300Z,100195.72
2018-04-15T05:39:43.211Z,100202.01
2018-04-15T05:40:49.733Z,100199.89
2018-04-15T05:41:55.511Z,100199.55
2018-04-15T05:43:01.288Z,100198.36
2018-04-15T05:44:07.081Z,100198.50
2018-04-15T05:45:12.847Z,100189.41
2018-04-15T05:46:19.395Z,100189.97
2018-04-15T05:47:25.167Z,100191.37
2018-04-15T05:48:30.934Z,100190.22
2018-04-15T05:49:36.728Z,100188.19
2018-04-15T05:50:43.271Z,100182.62
2018-04-15T05:51:49.819Z,100180.58
2018-04-15T05:52:55.588Z,100179.08
2018-04-15T05:54:01.436Z,100173.17
2018-04-15T05:55:07.990Z,100175.33
2018-04-15T05:56:14.315Z,100176.69
2018-04-15T05:57:20.077Z,100167.11
2018-04-15T05:58:25.888Z,100159.45
2018-04-15T05:59:31.675Z,100161.02
2018-04-15T06:00:37.648Z,100157.41
2018-04-15T06:01:43.414Z,100160.38
2018-04-15T06:02:49.196Z,100162.45
2018-04-15T06:03:55.730Z,100169.37
2018-04-15T06:05:01.502Z,100166.05
2018-04-15T06:06:07.312Z,100166.34
2018-04-15T06:07:13.079Z,100160.58
2018-04-15T06:08:19.682Z,100156.09
2018-04-15T06:09:25.459Z,100160.13
2018-04-15T06:10:31.236Z,100160.18
2018-04-15T06:11:37.051Z,100152.60
2018-04-15T06:12:43.031Z,100152.53
2018-04-15T06:13:49.570Z,100149.81
2018-04-15T06:14:55.375Z,100147.55
2018-04-15T06:16:02.091Z,100140.17
2018-04-15T06:17:07.899Z,100145.03
2018-04-15T06:18:13.668Z,100140.66
2018-04-15T06:19:21.173Z,100139.91
2018-04-15T06:20:27.062Z,100141.71
2018-04-15T06:21:32.590Z,100136.96
2018-04-15T06:22:38.412Z,100141.30
2018-04-15T06:23:44.163Z,100145.59
2018-04-15T06:24:49.935Z,100145.97
2018-04-15T06:25:55.702Z,100146.82
2018-04-15T06:27:01.476Z,100140.70
2018-04-15T06:28:07.269Z,100138.95
2018-04-15T06:29:13.060Z,100143.83
2018-04-15T06:30:18.831Z,100143.21
2018-04-15T06:31:24.605Z,100134.98
2018-04-15T06:32:31.136Z,100138.01
2018-04-15T06:33:36.935Z,100131.36
2018-04-15T06:34:43.488Z,100139.90
2018-04-15T06:35:50.033Z,100140.32
2018-04-15T06:36:55.850Z,100138.58
2018-04-15T06:38:01.799Z,100135.14
2018-04-15T06:39:06.787Z,100132.97
2018-04-15T06:40:12.559Z,100127.27
2018-04-15T06:41:18.339Z,100127.97
2018-04-15T06:42:24.107Z,100118.77
2018-04-15T06:43:29.871Z,100117.02
2018-04-15T06:44:35.588Z,100113.48
2018-04-15T06:45:41.360Z,100113.17
2018-04-15T06:46:47.131Z,100107.55
2018-04-15T06:47:52.928Z,100109.06
2018-04-15T06:48:58.716Z,100099.00
2018-04-15T06:50:04.513Z,100100.51
2018-04-15T06:51:10.077Z,100090.72
2018-04-15T06:52:15.847Z,100093.84
2018-04-15T06:53:21.634Z,100091.01
2018-04-15T06:54:27.389Z,100088.89
2018-04-15T06:55:33.180Z,100089.30
2018-04-15T06:56:39.710Z,100086.80
2018-04-15T06:57:45.483Z,100085.63
2018-04-15T06:58:52.017Z,100077.94
2018-04-15T06:59:57.790Z,100083.80
2018-04-15T07:01:04.343Z,100083.56
2018-04-15T07:02:10.871Z,100071.18
2018-04-15T07:03:16.655Z,100071.48
2018-04-15T07:04:23.206Z,100067.17
2018-04-15T07:05:29.728Z,100066.44
2018-04-15T07:06:35.523Z,100061.81
2018-04-15T07:07:41.288Z,100063.71
2018-04-15T07:08:47.067Z,100057.35
2018-04-15T07:09:52.611Z,100059.72
2018-04-15T07:10:58.392Z,100061.34
2018-04-15T07:12:04.168Z,100057.87
2018-04-15T07:13:09.930Z,100051.53
2018-04-15T07:14:15.725Z,100054.10
2018-04-15T07:15:21.491Z,100050.20
2018-04-15T07:16:27.325Z,100052.75
2018-04-15T07:17:34.039Z,100050.22
2018-04-15T07:18:40.583Z,100048.47
2018-04-15T07:19:47.875Z,100054.71
2018-04-15T07:20:53.639Z,100053.26
2018-04-15T07:21:59.402Z,100053.16
2018-04-15T07:23:05.232Z,100057.84
2018-04-15T07:24:11.079Z,100054.20
2018-04-15T07:25:16.842Z,100056.80
2018-04-15T07:26:22.626Z,100058.91
2018-04-15T07:27:28.594Z,100058.61
2018-04-15T07:28:35.154Z,100054.68
2018-04-15T07:29:41.688Z,100054.46
2018-04-15T07:30:47.476Z,100051.40
2018-04-15T07:31:53.239Z,100055.44
2018-04-15T07:32:59.033Z,100054.04
2018-04-15T07:34:05.584Z,100055.63
2018-04-15T07:35:12.116Z,100050.25
2018-04-15T07:36:17.683Z,100048.61
2018-04-15T07:37:24.217Z,100044.69
2018-04-15T07:38:29.747Z,100040.72
2018-04-15T07:39:35.535Z,100035.18
2018-04-15T07:40:41.307Z,100037.52
2018-04-15T07:41:47.170Z,100029.92
2018-04-15T07:42:52.947Z,100031.06
2018-04-15T07:43:59.509Z,100026.31
2018-04-15T07:45:06.056Z,100025.80
2018-04-15T07:46:11.837Z,100032.09
2018-04-15T07:47:17.599Z,100032.73
2018-04-15T07:48:23.364Z,100030.22
2018-04-15T07:49:29.144Z,100032.36
2018-04-15T07:50:35.711Z,100031.24
2018-04-15T07:51:42.243Z,100029.46
2018-04-15T07:52:48.025Z,100020.07
2018-04-15T07:53:53.791Z,100022.89
2018-04-15T07:54:59.557Z,100023.33
2018-04-15T07:56:05.347Z,100024.26
2018-04-15T07:57:11.123Z,100031.60
2018-04-15T07:58:16.904Z,100036.55
2018-04-15T07:59:23.438Z,100033.87
2018-04-15T08:00:29.215Z,100041.00
2018-04-15T08:01:35.776Z,100036.50
2018-04-15T08:02:42.334Z,100029.61
2018-04-15T08:03:48.874Z,100026.27
2018-04-15T08:04:54.636Z,100029.20
2018-04-15T08:06:01.181Z,100029.25
2018-04-15T08:07:07.736Z,100029.63
2018-04-15T08:08:13.510Z,100023.14
2018-04-15T08:09:20.043Z,100018.09
2018-04-15T08:10:27.523Z,100023.17
2018-04-15T08:11:33.279Z,100023.28
2018-04-15T08:12:39.843Z,100020.49
2018-04-15T08:13:46.384Z,100016.71
2018-04-15T08:14:52.163Z,100018.69
2018-04-15T08:15:57.932Z,100017.22
2018-04-15T08:17:03.880Z,100020.26
2018-04-15T08:18:09.703Z,100013.68
2018-04-15T08:19:15.480Z,100012.92
2018-04-15T08:20:21.760Z,100011.92
2018-04-15T08:21:28.148Z,100012.81
2018-04-15T08:22:33.936Z,100014.36
2018-04-15T08:23:39.724Z,100019.11
2018-04-15T08:24:45.616Z,100017.13
2018-04-15T08:25:51.530Z,100017.77
2018-04-15T08:26:57.420Z,100011.98
2018-04-15T08:28:03.190Z,100018.47
2018-04-15T08:29:10.126Z,100017.70
2018-04-15T08:30:15.695Z,100021.84
2018-04-15T08:31:22.296Z,100020.16
2018-04-15T08:32:28.067Z,100020.02
2018-04-15T08:33:33.871Z,100022.12
2018-04-15T08:34:40.003Z,100024.38
2018-04-15T08:35:45.812Z,100030.64
2018-04-15T08:36:52.716Z,100027.88
2018-04-15T08:37:58.504Z,100036.89
2018-04-15T08:39:03.620Z,100036.16
2018-04-15T08:40:09.535Z,100042.62
2018-04-15T08:41:15.443Z,100046.96
2018-04-15T08:42:22.083Z,100042.70
2018-04-15T08:43:28.094Z,100037.72
2018-04-15T08:44:36.907Z,100047.28
2018-04-15T08:45:43.643Z,100045.94
2018-04-15T08:46:50.183Z,100042.81
2018-04-15T08:47:56.349Z,100044.89
2018-04-15T08:49:03.218Z,100047.77
2018-04-15T08:50:09.788Z,100042.55
2018-04-15T08:51:17.263Z,100044.69
2018-04-15T08:52:24.644Z,100045.11
2018-04-15T08:53:31.239Z,100038.83
2018-04-15T08:54:38.610Z,100037.91
2018-04-15T08:55:44.408Z,100034.66
2018-04-15T08:56:50.203Z,100034.42
2018-04-15T08:57:56.696Z,100034.49
2018-04-15T08:59:03.224Z,100033.69
2018-04-15T09:00:09.337Z,100033.17
2018-04-15T09:01:15.147Z,100032.27
2018-04-15T09:02:21.740Z,100034.91
2018-04-15T09:03:28.267Z,100026.06
2018-04-15T09:04:34.038Z,100026.75
2018-04-15T09:05:40.613Z,100029.66
2018-04-15T09:06:47.145Z,100028.66
2018-04-15T09:07:57.723Z,100031.27
2018-04-15T09:09:03.806Z,100027.92
2018-04-15T09:10:10.863Z,100021.69
2018-04-15T09:11:16.813Z,100022.33
2018-04-15T09:12:22.715Z,100014.19
2018-04-15T09:13:29.518Z,100013.13
2018-04-15T09:14:35.463Z,100010.98
2018-04-15T09:15:42.707Z,100010.16
2018-04-15T09:16:48.786Z,100006.87
2018-04-15T09:17:56.715Z,100002.14
2018-04-15T09:19:03.215Z,99996.91
2018-04-15T09:20:10.052Z,99994.88
2018-04-15T09:21:16.035Z,100002.41
2018-04-15T09:22:22.749Z,99999.37
2018-04-15T09:23:29.713Z,100000.95
2018-04-15T09:24:36.709Z,99995.77
2018-04-15T09:25:43.387Z,100004.44
2018-04-15T09:26:49.280Z,100000.03
2018-04-15T09:27:55.958Z,99992.52
2018-04-15T09:29:01.905Z,99998.18
2018-04-15T09:30:09.880Z,99991.23
2018-04-15T09:31:15.923Z,99988.36
2018-04-15T09:32:22.188Z,99983.92
2018-04-15T09:33:28.237Z,99981.16
2018-04-15T09:34:34.617Z,99981.05
2018-04-15T09:35:41.586Z,99979.71
2018-04-15T09:36:48.671Z,99976.61
2018-04-15T09:37:55.840Z,99973.89
2018-04-15T09:39:02.080Z,99977.32
2018-04-15T09:40:08.127Z,99970.16
2018-04-15T09:41:14.068Z,99975.19
2018-04-15T09:42:20.982Z,99971.28
2018-04-15T09:43:26.958Z,99962.56
2018-04-15T09:44:33.341Z,99962.22
2018-04-15T09:45:39.160Z,99969.13
2018-04-15T09:46:46.482Z,99969.52
2018-04-15T09:47:52.294Z,99974.67
2018-04-15T09:48:58.942Z,99969.85
2018-04-15T09:50:07.233Z,99973.82
2018-04-15T09:51:13.283Z,99970.34
2018-04-15T09:52:20.741Z,99972.31
2018-04-15T09:53:27.920Z,99973.96
2018-04-15T09:54:34.435Z,99974.38
2018-04-15T09:55:40.784Z,99968.95
2018-04-15T09:56:47.058Z,99976.47
2018-04-15T09:57:53.455Z,99968.34
2018-04-15T09:59:00.161Z,99974.78
2018-04-15T10:00:07.565Z,99973.13
2018-04-15T10:01:17.477Z,99968.75
2018-04-15T10:02:23.522Z,99970.98
2018-04-15T10:03:29.655Z,99969.75
2018-04-15T10:04:36.571Z,99973.33
2018-04-15T10:05:43.287Z,99962.31
2018-04-15T10:06:50.147Z,99966.22
2018-04-15T10:07:56.939Z,99960.53
2018-04-15T10:09:02.967Z,99954.28
2018-04-15T10:10:11.688Z,99959.35
2018-04-15T10:11:18.508Z,99961.79
2018-04-15T10:12:24.511Z,99962.87
2018-04-15T10:13:30.638Z,99957.45
2018-04-15T10:14:41.764Z,99960.14
2018-04-15T10:15:48.751Z,99959.65
2018-04-15T10:16:55.750Z,99955.73
2018-04-15T10:18:01.942Z,99960.31
2018-04-15T10:19:08.074Z,99951.69
2018-04-15T10:20:14.091Z,99952.91
2018-04-15T10:21:20.066Z,99950.88
2018-04-15T10:22:26.029Z,99957.94
2018-04-15T10:23:31.954Z,99955.50
2018-04-15T10:24:39.039Z,99956.84
2018-04-15T10:25:45.662Z,99946.45
2018-04-15T10:26:52.560Z,99949.63
2018-04-15T10:27:59.479Z,99945.36
2018-04-15T10:29:06.897Z,99948.41
2018-04-15T10:30:12.697Z,99940.75
2018-04-15T10:31:18.802Z,99944.70
2018-04-15T10:32:24.750Z,99937.80
2018-04-15T10:33:31.395Z,99944.31
2018-04-15T10:34:38.229Z,99943.75
2018-04-15T10:35:46.504Z,99946.13
2018-04-15T10:36:52.688Z,99949.66
2018-04-15T10:37:59.676Z,99946.26
2018-04-15T10:39:05.749Z,99939.27
2018-04-15T10:40:11.661Z,99938.84
2018-04-15T10:41:17.642Z,99934.81
2018-04-15T10:42:23.546Z,99925.69
2018-04-15T10:43:29.332Z,99924.98
2018-04-15T10:44:36.097Z,99923.44
2018-04-15T10:45:42.245Z,99921.97
2018-04-15T10:46:48.893Z,99920.41
2018-04-15T10:47:55.723Z,99915.58
2018-04-15T10:49:02.119Z,99920.61
2018-04-15T10:50:08.342Z,99914.48
2018-04-15T10:51:14.253Z,99915.99
2018-04-15T10:52:20.275Z,99912.56
2018-04-15T10:53:26.324Z,99915.96
2018-04-15T10:54:32.146Z,99912.36
2018-04-15T10:55:38.183Z,99914.72
2018-04-15T10:56:46.377Z,99915.81
2018-04-15T10:57:55.325Z,99915.19
2018-04-15T10:59:01.276Z,99915.66
2018-04-15T11:00:07.534Z,99918.91
2018-04-15T11:01:13.577Z,99909.23
2018-04-15T11:02:19.524Z,99914.20
2018-04-15T11:03:26.493Z,99912.30
2018-04-15T11:04:32.602Z,99909.42
2018-04-15T11:05:39.419Z,99912.10
2018-04-15T11:06:46.434Z,99911.10
2018-04-15T11:07:53.454Z,99908.46
2018-04-15T11:08:59.603Z,99908.33
2018-04-15T11:10:05.436Z,99908.22
2018-04-15T11:11:12.149Z,99908.81
2018-04-15T11:12:19.903Z,99915.72
2018-04-15T11:13:26.694Z,99910.86
2018-04-15T11:14:32.793Z,99912.86
2018-04-15T11:15:41.303Z,99908.05
2018-04-15T11:16:47.919Z,99908.44
2018-04-15T11:17:54.931Z,99910.17
2018-04-15T11:19:01.929Z,99904.02
2018-04-15T11:20:07.774Z,99909.08
2018-04-15T11:21:13.479Z,99912.50
2018-04-15T11:22:20.793Z,99907.66
2018-04-15T11:23:26.842Z,99906.04
2018-04-15T11:24:33.394Z,99910.59
2018-04-15T11:25:39.747Z,99912.70
2018-04-15T11:26:47.351Z,99914.53
2018-04-15T11:27:53.131Z,99911.91
2018-04-15T11:28:59.000Z,99914.29
2018-04-15T11:30:07.888Z,99905.73
2018-04-15T11:31:13.767Z,99907.00
2018-04-15T11:32:21.284Z,99906.41
2018-04-15T11:33:27.088Z,99907.05
2018-04-15T11:34:33.688Z,99918.41
2018-04-15T11:35:39.611Z,99912.55
2018-04-15T11:37:56.775Z,99915.27
2018-04-15T11:39:03.481Z,99913.89
2018-04-15T11:40:09.272Z,99914.05
2018-04-15T11:41:15.049Z,99912.38
2018-04-15T11:42:21.019Z,99910.63
2018-04-15T11:43:26.814Z,99907.09
2018-04-15T11:44:32.603Z,99906.93
2018-04-15T11:45:38.456Z,99903.23
2018-04-15T11:46:44.230Z,99903.32
2018-04-15T11:47:50.140Z,99906.67
2018-04-15T11:48:55.907Z,99908.64
2018-04-15T11:50:01.717Z,99900.44
2018-04-15T11:51:07.496Z,99909.11
2018-04-15T11:52:13.265Z,99908.77
2018-04-15T11:53:19.060Z,99903.12
2018-04-15T11:54:24.870Z,99911.16
2018-04-15T11:55:30.715Z,99903.58
2018-04-15T11:56:37.291Z,99900.89
2018-04-15T11:57:43.070Z,99898.83
2018-04-15T11:58:48.856Z,99898.83
2018-04-15T11:59:55.390Z,99896.31
2018-04-15T12:01:01.230Z,99893.16
2018-04-15T12:02:07.031Z,99896.47
2018-04-15T12:03:13.058Z,99891.52
2018-04-15T12:04:18.957Z,99894.22
2018-04-15T12:05:24.713Z,99893.64
2018-04-15T12:06:30.475Z,99888.44
2018-04-15T12:07:37.987Z,99887.35
2018-04-15T12:08:44.021Z,99882.66
2018-04-15T12:09:49.819Z,99883.20
2018-04-15T12:10:56.464Z,99880.22
2018-04-15T12:12:02.235Z,99884.83
2018-04-15T12:13:08.006Z,99882.61
2018-04-15T12:14:14.540Z,99886.76
2018-04-15T12:15:21.088Z,99879.92
2018-04-15T12:16:26.862Z,99880.88
2018-04-15T12:17:33.439Z,99880.00
2018-04-15T12:18:39.485Z,99878.37
2018-04-15T12:19:45.287Z,99882.15
2018-04-15T12:20:51.109Z,99885.13
2018-04-15T12:21:56.885Z,99880.98
2018-04-15T12:23:03.628Z,99879.55
2018-04-15T12:24:09.400Z,99879.84
2018-04-15T12:25:15.948Z,99880.34
2018-04-15T12:26:21.751Z,99877.63
2018-04-15T12:27:27.552Z,99881.11
2018-04-15T12:28:34.076Z,99876.66
2018-04-15T12:29:39.868Z,99878.92
2018-04-15T12:30:47.460Z,99879.39
2018-04-15T12:31:53.396Z,99877.63
2018-04-15T12:32:59.187Z,99873.67
2018-04-15T12:34:04.980Z,99871.87
2018-04-15T12:35:10.753Z,99867.83
2018-04-15T12:36:16.527Z,99868.84
2018-04-15T12:37:22.459Z,99867.16
2018-04-15T12:38:28.267Z,99867.80
2018-04-15T12:39:34.032Z,99865.92
2018-04-15T12:40:39.856Z,99862.36
2018-04-15T12:41:45.635Z,99864.87
2018-04-15T12:42:51.438Z,99859.51